sensor_id;sensor_type;location;lat;lon;timestamp;P1;durP1;ratioP1;P2;durP2;ratioP2
146;SDS011;45999;48.808;9.182;2023-02-12T00:01:07;24.73;;;19.83;;
146;SDS011;45999;48.808;9.182;2023-02-12T00:03:37;26.63;;;20.83;;
146;SDS011;45999;48.808;9.182;2023-02-12T00:06:04;27.03;;;20.67;;
146;SDS011;45999;48.808;9.182;2023-02-12T00:08:31;26.87;;;21.30;;
146;SDS011;45999;48.808;9.182;2023-02-12T00:10:58;25.40;;;20.17;;
146;SDS011;45999;48.808;9.182;2023-02-12T00:13:24;27.00;;;21.17;;
146;SDS011;45999;48.808;9.182;2023-02-12T00:15:51;26.03;;;20.20;;
146;SDS011;45999;48.808;9.182;2023-02-12T00:18:17;26.30;;;20.83;;
146;SDS011;45999;48.808;9.182;2023-02-12T00:20:43;26.77;;;20.90;;
146;SDS011;45999;48.808;9.182;2023-02-12T00:23:10;27.60;;;21.50;;
146;SDS011;45999;48.808;9.182;2023-02-12T00:25:39;25.13;;;21.13;;
146;SDS011;45999;48.808;9.182;2023-02-12T00:28:06;23.97;;;19.90;;
146;SDS011;45999;48.808;9.182;2023-02-12T00:30:33;29.50;;;22.10;;
146;SDS011;45999;48.808;9.182;2023-02-12T00:33:00;28.17;;;20.20;;
146;SDS011;45999;48.808;9.182;2023-02-12T00:35:26;25.63;;;20.97;;
146;SDS011;45999;48.808;9.182;2023-02-12T00:37:53;29.10;;;21.70;;
146;SDS011;45999;48.808;9.182;2023-02-12T00:40:19;28.60;;;22.40;;
146;SDS011;45999;48.808;9.182;2023-02-12T00:42:45;30.77;;;22.73;;
146;SDS011;45999;48.808;9.182;2023-02-12T00:45:12;29.20;;;21.77;;
146;SDS011;45999;48.808;9.182;2023-02-12T00:47:38;28.33;;;22.80;;
146;SDS011;45999;48.808;9.182;2023-02-12T00:50:05;26.70;;;22.20;;
146;SDS011;45999;48.808;9.182;2023-02-12T00:52:32;28.77;;;21.97;;
146;SDS011;45999;48.808;9.182;2023-02-12T00:54:58;31.43;;;22.40;;
146;SDS011;45999;48.808;9.182;2023-02-12T00:57:24;30.37;;;21.83;;
146;SDS011;45999;48.808;9.182;2023-02-12T00:59:51;31.53;;;23.33;;
146;SDS011;45999;48.808;9.182;2023-02-12T01:02:17;28.93;;;21.73;;
146;SDS011;45999;48.808;9.182;2023-02-12T01:04:43;27.70;;;22.30;;
146;SDS011;45999;48.808;9.182;2023-02-12T01:07:10;27.17;;;22.17;;
146;SDS011;45999;48.808;9.182;2023-02-12T01:09:37;28.20;;;22.40;;
146;SDS011;45999;48.808;9.182;2023-02-12T01:12:03;29.13;;;23.00;;
146;SDS011;45999;48.808;9.182;2023-02-12T01:14:30;30.20;;;23.50;;
146;SDS011;45999;48.808;9.182;2023-02-12T01:16:56;27.27;;;21.87;;
146;SDS011;45999;48.808;9.182;2023-02-12T01:19:22;26.07;;;22.63;;
146;SDS011;45999;48.808;9.182;2023-02-12T01:21:49;30.07;;;22.17;;
146;SDS011;45999;48.808;9.182;2023-02-12T01:24:15;29.63;;;23.40;;
146;SDS011;45999;48.808;9.182;2023-02-12T01:26:42;26.17;;;22.63;;
146;SDS011;45999;48.808;9.182;2023-02-12T01:29:09;28.00;;;22.10;;
146;SDS011;45999;48.808;9.182;2023-02-12T01:31:36;29.83;;;23.73;;
146;SDS011;45999;48.808;9.182;2023-02-12T01:34:04;27.23;;;22.30;;
146;SDS011;45999;48.808;9.182;2023-02-12T01:36:32;28.70;;;22.97;;
146;SDS011;45999;48.808;9.182;2023-02-12T01:38:59;27.73;;;23.03;;
146;SDS011;45999;48.808;9.182;2023-02-12T01:41:28;30.93;;;24.60;;
146;SDS011;45999;48.808;9.182;2023-02-12T01:44:06;30.43;;;22.43;;
146;SDS011;45999;48.808;9.182;2023-02-12T01:46:45;28.20;;;22.27;;
146;SDS011;45999;48.808;9.182;2023-02-12T01:49:46;29.07;;;22.60;;
146;SDS011;45999;48.808;9.182;2023-02-12T01:52:09;26.97;;;22.47;;
146;SDS011;45999;48.808;9.182;2023-02-12T01:54:41;30.37;;;22.87;;
146;SDS011;45999;48.808;9.182;2023-02-12T01:57:08;28.23;;;22.03;;
146;SDS011;45999;48.808;9.182;2023-02-12T01:59:36;29.23;;;23.43;;
146;SDS011;45999;48.808;9.182;2023-02-12T02:02:04;26.13;;;22.07;;
146;SDS011;45999;48.808;9.182;2023-02-12T02:04:32;29.07;;;22.63;;
146;SDS011;45999;48.808;9.182;2023-02-12T02:07:05;29.80;;;22.53;;
146;SDS011;45999;48.808;9.182;2023-02-12T02:09:34;30.00;;;23.50;;
146;SDS011;45999;48.808;9.182;2023-02-12T02:12:02;29.37;;;23.47;;
146;SDS011;45999;48.808;9.182;2023-02-12T02:14:46;28.30;;;22.67;;
146;SDS011;45999;48.808;9.182;2023-02-12T02:17:23;29.17;;;23.10;;
146;SDS011;45999;48.808;9.182;2023-02-12T02:20:10;27.63;;;22.70;;
146;SDS011;45999;48.808;9.182;2023-02-12T02:31:24;26.70;;;21.97;;
146;SDS011;45999;48.808;9.182;2023-02-12T02:36:39;28.43;;;22.43;;
146;SDS011;45999;48.808;9.182;2023-02-12T02:39:16;26.70;;;23.00;;
146;SDS011;45999;48.808;9.182;2023-02-12T02:41:54;32.70;;;23.50;;
146;SDS011;45999;48.808;9.182;2023-02-12T02:44:30;30.63;;;23.03;;
146;SDS011;45999;48.808;9.182;2023-02-12T02:47:03;27.07;;;23.60;;
146;SDS011;45999;48.808;9.182;2023-02-12T02:49:36;28.97;;;22.67;;
146;SDS011;45999;48.808;9.182;2023-02-12T02:52:08;26.27;;;22.73;;
146;SDS011;45999;48.808;9.182;2023-02-12T02:54:44;28.70;;;21.97;;
146;SDS011;45999;48.808;9.182;2023-02-12T02:57:19;28.00;;;22.50;;
146;SDS011;45999;48.808;9.182;2023-02-12T02:59:54;29.90;;;23.13;;
146;SDS011;45999;48.808;9.182;2023-02-12T03:02:31;30.20;;;23.53;;
146;SDS011;45999;48.808;9.182;2023-02-12T03:05:03;28.10;;;22.27;;
146;SDS011;45999;48.808;9.182;2023-02-12T03:07:36;31.93;;;23.17;;
146;SDS011;45999;48.808;9.182;2023-02-12T03:10:19;30.43;;;22.03;;
146;SDS011;45999;48.808;9.182;2023-02-12T03:12:57;29.10;;;23.83;;
146;SDS011;45999;48.808;9.182;2023-02-12T03:18:03;31.60;;;24.40;;
146;SDS011;45999;48.808;9.182;2023-02-12T03:20:35;28.60;;;23.43;;
146;SDS011;45999;48.808;9.182;2023-02-12T03:23:27;31.27;;;23.67;;
146;SDS011;45999;48.808;9.182;2023-02-12T03:26:05;30.97;;;25.03;;
146;SDS011;45999;48.808;9.182;2023-02-12T03:28:37;29.67;;;23.07;;
146;SDS011;45999;48.808;9.182;2023-02-12T03:36:21;31.20;;;23.83;;
146;SDS011;45999;48.808;9.182;2023-02-12T03:38:56;30.87;;;23.77;;
146;SDS011;45999;48.808;9.182;2023-02-12T03:41:31;29.77;;;24.37;;
146;SDS011;45999;48.808;9.182;2023-02-12T03:44:51;29.30;;;24.77;;
146;SDS011;45999;48.808;9.182;2023-02-12T03:49:45;27.93;;;23.87;;
146;SDS011;45999;48.808;9.182;2023-02-12T03:52:18;28.80;;;23.30;;
146;SDS011;45999;48.808;9.182;2023-02-12T03:54:44;30.30;;;24.20;;
146;SDS011;45999;48.808;9.182;2023-02-12T03:57:13;31.93;;;24.83;;
146;SDS011;45999;48.808;9.182;2023-02-12T03:59:44;29.87;;;22.77;;
146;SDS011;45999;48.808;9.182;2023-02-12T04:02:10;30.53;;;23.83;;
146;SDS011;45999;48.808;9.182;2023-02-12T04:04:37;28.13;;;23.37;;
146;SDS011;45999;48.808;9.182;2023-02-12T04:07:04;28.27;;;23.90;;
146;SDS011;45999;48.808;9.182;2023-02-12T04:09:30;29.00;;;23.77;;
146;SDS011;45999;48.808;9.182;2023-02-12T04:17:29;29.03;;;24.13;;
146;SDS011;45999;48.808;9.182;2023-02-12T04:20:20;31.63;;;23.93;;
146;SDS011;45999;48.808;9.182;2023-02-12T04:23:10;28.47;;;23.30;;
146;SDS011;45999;48.808;9.182;2023-02-12T04:31:02;30.50;;;24.47;;
146;SDS011;45999;48.808;9.182;2023-02-12T04:33:34;29.80;;;22.90;;
146;SDS011;45999;48.808;9.182;2023-02-12T04:36:11;28.57;;;22.50;;
146;SDS011;45999;48.808;9.182;2023-02-12T04:38:54;30.97;;;23.73;;
146;SDS011;45999;48.808;9.182;2023-02-12T04:41:25;30.20;;;22.60;;
146;SDS011;45999;48.808;9.182;2023-02-12T04:43:52;27.47;;;22.63;;
146;SDS011;45999;48.808;9.182;2023-02-12T04:46:18;32.23;;;23.53;;
146;SDS011;45999;48.808;9.182;2023-02-12T04:48:55;26.57;;;21.90;;
146;SDS011;45999;48.808;9.182;2023-02-12T04:51:23;28.70;;;23.00;;
146;SDS011;45999;48.808;9.182;2023-02-12T04:53:50;27.73;;;22.33;;
146;SDS011;45999;48.808;9.182;2023-02-12T04:56:16;28.13;;;23.00;;
146;SDS011;45999;48.808;9.182;2023-02-12T04:58:42;30.07;;;23.53;;
146;SDS011;45999;48.808;9.182;2023-02-12T05:01:09;30.47;;;23.70;;
146;SDS011;45999;48.808;9.182;2023-02-12T05:03:36;29.17;;;23.37;;
146;SDS011;45999;48.808;9.182;2023-02-12T05:06:06;29.50;;;22.93;;
146;SDS011;45999;48.808;9.182;2023-02-12T05:08:34;27.73;;;22.53;;
146;SDS011;45999;48.808;9.182;2023-02-12T05:11:04;26.43;;;22.13;;
146;SDS011;45999;48.808;9.182;2023-02-12T05:13:34;27.90;;;22.07;;
146;SDS011;45999;48.808;9.182;2023-02-12T05:16:05;25.77;;;22.70;;
146;SDS011;45999;48.808;9.182;2023-02-12T05:18:33;28.23;;;22.57;;
146;SDS011;45999;48.808;9.182;2023-02-12T05:21:01;29.23;;;23.00;;
146;SDS011;45999;48.808;9.182;2023-02-12T05:23:30;27.00;;;21.97;;
146;SDS011;45999;48.808;9.182;2023-02-12T05:25:59;27.07;;;23.07;;
146;SDS011;45999;48.808;9.182;2023-02-12T05:28:27;27.07;;;22.63;;
146;SDS011;45999;48.808;9.182;2023-02-12T05:30:54;30.20;;;22.70;;
146;SDS011;45999;48.808;9.182;2023-02-12T05:33:24;26.50;;;22.03;;
146;SDS011;45999;48.808;9.182;2023-02-12T05:35:50;28.07;;;23.17;;
146;SDS011;45999;48.808;9.182;2023-02-12T05:38:17;27.00;;;22.10;;
146;SDS011;45999;48.808;9.182;2023-02-12T05:40:43;26.77;;;22.27;;
146;SDS011;45999;48.808;9.182;2023-02-12T05:43:09;29.20;;;23.47;;
146;SDS011;45999;48.808;9.182;2023-02-12T05:45:36;29.17;;;22.47;;
146;SDS011;45999;48.808;9.182;2023-02-12T05:48:05;29.03;;;23.07;;
146;SDS011;45999;48.808;9.182;2023-02-12T05:50:32;29.30;;;23.17;;
146;SDS011;45999;48.808;9.182;2023-02-12T05:53:01;28.43;;;23.10;;
146;SDS011;45999;48.808;9.182;2023-02-12T05:55:28;28.13;;;22.80;;
146;SDS011;45999;48.808;9.182;2023-02-12T05:57:55;26.67;;;23.00;;
146;SDS011;45999;48.808;9.182;2023-02-12T06:00:21;28.57;;;22.27;;
146;SDS011;45999;48.808;9.182;2023-02-12T06:02:48;31.40;;;23.00;;
146;SDS011;45999;48.808;9.182;2023-02-12T06:05:14;28.33;;;23.23;;
146;SDS011;45999;48.808;9.182;2023-02-12T06:07:40;26.90;;;22.37;;
146;SDS011;45999;48.808;9.182;2023-02-12T06:10:07;28.00;;;23.17;;
146;SDS011;45999;48.808;9.182;2023-02-12T06:12:34;29.63;;;23.27;;
146;SDS011;45999;48.808;9.182;2023-02-12T06:15:00;25.97;;;21.83;;
146;SDS011;45999;48.808;9.182;2023-02-12T06:17:26;26.57;;;22.37;;
146;SDS011;45999;48.808;9.182;2023-02-12T06:19:53;28.47;;;22.63;;
146;SDS011;45999;48.808;9.182;2023-02-12T06:22:19;29.17;;;23.80;;
146;SDS011;45999;48.808;9.182;2023-02-12T06:24:45;29.10;;;23.03;;
146;SDS011;45999;48.808;9.182;2023-02-12T06:27:12;30.10;;;23.87;;
146;SDS011;45999;48.808;9.182;2023-02-12T06:29:38;29.13;;;23.00;;
146;SDS011;45999;48.808;9.182;2023-02-12T06:32:05;27.33;;;23.20;;
146;SDS011;45999;48.808;9.182;2023-02-12T06:34:32;27.83;;;22.20;;
146;SDS011;45999;48.808;9.182;2023-02-12T06:36:59;27.73;;;23.03;;
146;SDS011;45999;48.808;9.182;2023-02-12T06:39:25;27.13;;;23.43;;
146;SDS011;45999;48.808;9.182;2023-02-12T06:41:52;28.90;;;23.17;;
146;SDS011;45999;48.808;9.182;2023-02-12T06:44:18;28.30;;;23.13;;
146;SDS011;45999;48.808;9.182;2023-02-12T06:46:45;27.47;;;22.83;;
146;SDS011;45999;48.808;9.182;2023-02-12T06:49:11;27.37;;;22.23;;
146;SDS011;45999;48.808;9.182;2023-02-12T06:51:40;28.90;;;22.73;;
146;SDS011;45999;48.808;9.182;2023-02-12T06:54:14;30.80;;;23.27;;
146;SDS011;45999;48.808;9.182;2023-02-12T06:56:42;27.90;;;22.33;;
146;SDS011;45999;48.808;9.182;2023-02-12T06:59:11;28.87;;;22.77;;
146;SDS011;45999;48.808;9.182;2023-02-12T07:01:40;27.53;;;22.50;;
146;SDS011;45999;48.808;9.182;2023-02-12T07:04:07;29.13;;;22.47;;
146;SDS011;45999;48.808;9.182;2023-02-12T07:06:33;26.97;;;22.00;;
146;SDS011;45999;48.808;9.182;2023-02-12T07:09:01;27.83;;;22.47;;
146;SDS011;45999;48.808;9.182;2023-02-12T07:11:30;31.27;;;22.97;;
146;SDS011;45999;48.808;9.182;2023-02-12T07:13:57;30.63;;;22.10;;
146;SDS011;45999;48.808;9.182;2023-02-12T07:16:24;27.10;;;22.97;;
146;SDS011;45999;48.808;9.182;2023-02-12T07:18:51;28.93;;;22.80;;
146;SDS011;45999;48.808;9.182;2023-02-12T07:21:18;28.40;;;22.93;;
146;SDS011;45999;48.808;9.182;2023-02-12T07:23:46;26.87;;;22.67;;
146;SDS011;45999;48.808;9.182;2023-02-12T07:26:14;29.13;;;23.07;;
146;SDS011;45999;48.808;9.182;2023-02-12T07:28:41;26.53;;;22.00;;
146;SDS011;45999;48.808;9.182;2023-02-12T07:31:09;26.53;;;22.23;;
146;SDS011;45999;48.808;9.182;2023-02-12T07:33:40;29.43;;;22.57;;
146;SDS011;45999;48.808;9.182;2023-02-12T07:36:08;27.13;;;22.83;;
146;SDS011;45999;48.808;9.182;2023-02-12T07:38:37;28.40;;;22.03;;
146;SDS011;45999;48.808;9.182;2023-02-12T07:41:05;29.97;;;23.37;;
146;SDS011;45999;48.808;9.182;2023-02-12T07:43:32;27.70;;;22.37;;
146;SDS011;45999;48.808;9.182;2023-02-12T07:46:33;29.23;;;23.50;;
146;SDS011;45999;48.808;9.182;2023-02-12T07:48:55;30.10;;;23.37;;
146;SDS011;45999;48.808;9.182;2023-02-12T07:51:23;28.07;;;23.23;;
146;SDS011;45999;48.808;9.182;2023-02-12T07:53:51;30.13;;;23.87;;
146;SDS011;45999;48.808;9.182;2023-02-12T07:56:19;29.07;;;23.40;;
146;SDS011;45999;48.808;9.182;2023-02-12T07:58:48;31.80;;;24.37;;
146;SDS011;45999;48.808;9.182;2023-02-12T08:01:18;26.77;;;23.57;;
146;SDS011;45999;48.808;9.182;2023-02-12T08:03:47;29.33;;;23.73;;
146;SDS011;45999;48.808;9.182;2023-02-12T08:06:16;27.40;;;24.50;;
146;SDS011;45999;48.808;9.182;2023-02-12T08:08:44;31.27;;;23.83;;
146;SDS011;45999;48.808;9.182;2023-02-12T08:11:12;31.27;;;23.83;;
146;SDS011;45999;48.808;9.182;2023-02-12T08:13:39;30.13;;;25.90;;
146;SDS011;45999;48.808;9.182;2023-02-12T08:16:07;29.23;;;24.13;;
146;SDS011;45999;48.808;9.182;2023-02-12T08:18:35;28.37;;;23.70;;
146;SDS011;45999;48.808;9.182;2023-02-12T08:21:03;29.27;;;24.90;;
146;SDS011;45999;48.808;9.182;2023-02-12T08:23:31;30.77;;;24.80;;
146;SDS011;45999;48.808;9.182;2023-02-12T08:28:41;27.43;;;23.63;;
146;SDS011;45999;48.808;9.182;2023-02-12T08:31:14;28.33;;;24.43;;
146;SDS011;45999;48.808;9.182;2023-02-12T08:33:44;32.00;;;25.00;;
146;SDS011;45999;48.808;9.182;2023-02-12T08:36:12;28.47;;;24.87;;
146;SDS011;45999;48.808;9.182;2023-02-12T08:38:41;28.60;;;24.30;;
146;SDS011;45999;48.808;9.182;2023-02-12T08:41:09;31.73;;;23.87;;
146;SDS011;45999;48.808;9.182;2023-02-12T08:43:38;35.33;;;27.07;;
146;SDS011;45999;48.808;9.182;2023-02-12T08:46:09;33.90;;;26.23;;
146;SDS011;45999;48.808;9.182;2023-02-12T08:48:38;33.80;;;26.77;;
146;SDS011;45999;48.808;9.182;2023-02-12T08:51:09;29.73;;;25.93;;
146;SDS011;45999;48.808;9.182;2023-02-12T08:53:38;33.20;;;26.17;;
146;SDS011;45999;48.808;9.182;2023-02-12T08:56:06;32.80;;;26.70;;
146;SDS011;45999;48.808;9.182;2023-02-12T08:58:33;32.13;;;25.50;;
146;SDS011;45999;48.808;9.182;2023-02-12T09:01:01;30.43;;;27.03;;
146;SDS011;45999;48.808;9.182;2023-02-12T09:03:29;28.77;;;25.53;;
146;SDS011;45999;48.808;9.182;2023-02-12T09:05:55;34.17;;;26.93;;
146;SDS011;45999;48.808;9.182;2023-02-12T09:08:22;30.87;;;25.43;;
146;SDS011;45999;48.808;9.182;2023-02-12T09:10:48;33.90;;;26.37;;
146;SDS011;45999;48.808;9.182;2023-02-12T09:13:15;29.60;;;26.23;;
146;SDS011;45999;48.808;9.182;2023-02-12T09:15:42;33.33;;;27.23;;
146;SDS011;45999;48.808;9.182;2023-02-12T09:18:10;32.27;;;26.63;;
146;SDS011;45999;48.808;9.182;2023-02-12T09:20:38;32.97;;;27.20;;
146;SDS011;45999;48.808;9.182;2023-02-12T09:23:06;32.83;;;26.53;;
146;SDS011;45999;48.808;9.182;2023-02-12T09:25:33;31.10;;;26.17;;
146;SDS011;45999;48.808;9.182;2023-02-12T09:28:00;29.93;;;26.53;;
146;SDS011;45999;48.808;9.182;2023-02-12T09:30:27;32.90;;;26.47;;
146;SDS011;45999;48.808;9.182;2023-02-12T09:32:54;33.13;;;25.60;;
146;SDS011;45999;48.808;9.182;2023-02-12T09:35:22;31.70;;;26.50;;
146;SDS011;45999;48.808;9.182;2023-02-12T09:37:49;32.43;;;26.87;;
146;SDS011;45999;48.808;9.182;2023-02-12T09:40:23;31.57;;;25.77;;
146;SDS011;45999;48.808;9.182;2023-02-12T09:46:04;31.40;;;25.63;;
146;SDS011;45999;48.808;9.182;2023-02-12T09:51:05;27.87;;;24.47;;
146;SDS011;45999;48.808;9.182;2023-02-12T09:53:34;30.23;;;24.63;;
146;SDS011;45999;48.808;9.182;2023-02-12T09:56:08;32.27;;;26.20;;
146;SDS011;45999;48.808;9.182;2023-02-12T09:58:42;29.03;;;24.80;;
146;SDS011;45999;48.808;9.182;2023-02-12T10:01:13;28.13;;;23.63;;
146;SDS011;45999;48.808;9.182;2023-02-12T10:03:41;30.97;;;25.03;;
146;SDS011;45999;48.808;9.182;2023-02-12T10:06:19;30.70;;;24.70;;
146;SDS011;45999;48.808;9.182;2023-02-12T10:11:32;28.53;;;24.33;;
146;SDS011;45999;48.808;9.182;2023-02-12T10:17:18;25.83;;;20.10;;
146;SDS011;45999;48.808;9.182;2023-02-12T10:25:45;20.37;;;17.63;;
146;SDS011;45999;48.808;9.182;2023-02-12T10:28:16;25.43;;;20.30;;
146;SDS011;45999;48.808;9.182;2023-02-12T10:30:50;26.27;;;21.13;;
146;SDS011;45999;48.808;9.182;2023-02-12T10:33:45;25.83;;;21.20;;
146;SDS011;45999;48.808;9.182;2023-02-12T10:36:18;25.73;;;21.80;;
146;SDS011;45999;48.808;9.182;2023-02-12T10:39:24;26.00;;;22.37;;
146;SDS011;45999;48.808;9.182;2023-02-12T10:42:05;25.43;;;21.93;;
146;SDS011;45999;48.808;9.182;2023-02-12T10:44:41;18.17;;;15.17;;
146;SDS011;45999;48.808;9.182;2023-02-12T10:47:12;14.13;;;10.93;;
146;SDS011;45999;48.808;9.182;2023-02-12T10:49:44;11.17;;;9.80;;
146;SDS011;45999;48.808;9.182;2023-02-12T10:52:14;13.10;;;11.20;;
146;SDS011;45999;48.808;9.182;2023-02-12T10:54:53;11.17;;;9.17;;
146;SDS011;45999;48.808;9.182;2023-02-12T10:57:23;10.33;;;9.30;;
146;SDS011;45999;48.808;9.182;2023-02-12T10:59:52;13.30;;;10.20;;
146;SDS011;45999;48.808;9.182;2023-02-12T11:02:31;10.77;;;9.53;;
146;SDS011;45999;48.808;9.182;2023-02-12T11:04:59;10.20;;;9.13;;
146;SDS011;45999;48.808;9.182;2023-02-12T11:07:48;8.47;;;7.27;;
146;SDS011;45999;48.808;9.182;2023-02-12T11:10:29;8.00;;;6.23;;
146;SDS011;45999;48.808;9.182;2023-02-12T11:12:57;7.07;;;5.80;;
146;SDS011;45999;48.808;9.182;2023-02-12T11:15:25;6.63;;;4.77;;
146;SDS011;45999;48.808;9.182;2023-02-12T11:18:02;5.67;;;4.77;;
146;SDS011;45999;48.808;9.182;2023-02-12T11:20:38;6.80;;;6.10;;
146;SDS011;45999;48.808;9.182;2023-02-12T11:23:23;6.90;;;6.20;;
146;SDS011;45999;48.808;9.182;2023-02-12T11:25:57;6.97;;;6.27;;
146;SDS011;45999;48.808;9.182;2023-02-12T11:28:26;6.10;;;5.50;;
146;SDS011;45999;48.808;9.182;2023-02-12T11:33:42;8.37;;;6.60;;
146;SDS011;45999;48.808;9.182;2023-02-12T11:38:47;7.50;;;6.70;;
146;SDS011;45999;48.808;9.182;2023-02-12T11:41:25;8.97;;;7.07;;
146;SDS011;45999;48.808;9.182;2023-02-12T11:44:00;7.23;;;5.90;;
146;SDS011;45999;48.808;9.182;2023-02-12T11:46:34;7.43;;;5.93;;
146;SDS011;45999;48.808;9.182;2023-02-12T11:49:00;6.67;;;5.90;;
146;SDS011;45999;48.808;9.182;2023-02-12T11:51:28;7.53;;;5.87;;
146;SDS011;45999;48.808;9.182;2023-02-12T11:53:57;6.17;;;5.53;;
146;SDS011;45999;48.808;9.182;2023-02-12T11:56:38;7.50;;;5.60;;
146;SDS011;45999;48.808;9.182;2023-02-12T12:04:36;6.87;;;5.07;;
146;SDS011;45999;48.808;9.182;2023-02-12T12:07:11;6.07;;;5.20;;
146;SDS011;45999;48.808;9.182;2023-02-12T12:09:43;6.60;;;5.73;;
146;SDS011;45999;48.808;9.182;2023-02-12T12:12:21;8.00;;;6.00;;
146;SDS011;45999;48.808;9.182;2023-02-12T12:14:54;7.47;;;6.10;;
146;SDS011;45999;48.808;9.182;2023-02-12T12:17:46;8.47;;;5.83;;
146;SDS011;45999;48.808;9.182;2023-02-12T12:20:38;8.07;;;5.77;;
146;SDS011;45999;48.808;9.182;2023-02-12T12:23:14;7.27;;;5.83;;
146;SDS011;45999;48.808;9.182;2023-02-12T12:25:45;6.10;;;5.50;;
146;SDS011;45999;48.808;9.182;2023-02-12T12:52:29;5.73;;;5.13;;
146;SDS011;45999;48.808;9.182;2023-02-12T12:55:11;5.80;;;5.20;;
146;SDS011;45999;48.808;9.182;2023-02-12T13:03:50;6.00;;;5.40;;
146;SDS011;45999;48.808;9.182;2023-02-12T13:14:54;5.80;;;5.17;;
146;SDS011;45999;48.808;9.182;2023-02-12T13:20:16;5.27;;;4.43;;
146;SDS011;45999;48.808;9.182;2023-02-12T13:22:51;7.07;;;4.77;;
146;SDS011;45999;48.808;9.182;2023-02-12T13:28:04;6.07;;;5.20;;
146;SDS011;45999;48.808;9.182;2023-02-12T13:30:41;6.37;;;5.20;;
146;SDS011;45999;48.808;9.182;2023-02-12T13:33:24;7.53;;;4.10;;
146;SDS011;45999;48.808;9.182;2023-02-12T13:35:59;4.97;;;4.37;;
146;SDS011;45999;48.808;9.182;2023-02-12T13:38:31;5.37;;;4.53;;
146;SDS011;45999;48.808;9.182;2023-02-12T13:41:03;5.70;;;5.10;;
146;SDS011;45999;48.808;9.182;2023-02-12T13:56:36;4.93;;;4.17;;
146;SDS011;45999;48.808;9.182;2023-02-12T13:59:37;4.20;;;3.80;;
146;SDS011;45999;48.808;9.182;2023-02-12T14:02:00;4.23;;;3.80;;
146;SDS011;45999;48.808;9.182;2023-02-12T14:04:46;4.23;;;3.83;;
146;SDS011;45999;48.808;9.182;2023-02-12T14:07:19;6.43;;;4.00;;
146;SDS011;45999;48.808;9.182;2023-02-12T14:14:54;4.20;;;3.43;;
146;SDS011;45999;48.808;9.182;2023-02-12T14:27:43;3.47;;;2.80;;
146;SDS011;45999;48.808;9.182;2023-02-12T14:40:43;3.03;;;2.73;;
146;SDS011;45999;48.808;9.182;2023-02-12T14:45:52;3.97;;;2.90;;
146;SDS011;45999;48.808;9.182;2023-02-12T14:51:21;4.60;;;2.83;;
146;SDS011;45999;48.808;9.182;2023-02-12T14:54:17;3.27;;;2.70;;
146;SDS011;45999;48.808;9.182;2023-02-12T14:56:52;2.50;;;2.30;;
146;SDS011;45999;48.808;9.182;2023-02-12T14:59:22;2.57;;;2.23;;
146;SDS011;45999;48.808;9.182;2023-02-12T15:01:50;2.90;;;2.27;;
146;SDS011;45999;48.808;9.182;2023-02-12T15:04:24;2.77;;;2.50;;
146;SDS011;45999;48.808;9.182;2023-02-12T15:07:06;3.57;;;2.30;;
146;SDS011;45999;48.808;9.182;2023-02-12T15:09:50;2.50;;;2.20;;
146;SDS011;45999;48.808;9.182;2023-02-12T15:12:26;3.83;;;2.53;;
146;SDS011;45999;48.808;9.182;2023-02-12T15:15:20;2.67;;;1.87;;
146;SDS011;45999;48.808;9.182;2023-02-12T15:17:58;3.40;;;2.20;;
146;SDS011;45999;48.808;9.182;2023-02-12T15:20:43;2.63;;;1.67;;
146;SDS011;45999;48.808;9.182;2023-02-12T15:26:29;2.40;;;2.00;;
146;SDS011;45999;48.808;9.182;2023-02-12T15:29:02;3.33;;;2.13;;
146;SDS011;45999;48.808;9.182;2023-02-12T15:31:30;3.93;;;2.20;;
146;SDS011;45999;48.808;9.182;2023-02-12T15:33:59;2.57;;;2.37;;
146;SDS011;45999;48.808;9.182;2023-02-12T15:36:28;2.30;;;2.00;;
146;SDS011;45999;48.808;9.182;2023-02-12T15:38:58;2.30;;;2.10;;
146;SDS011;45999;48.808;9.182;2023-02-12T15:44:01;3.47;;;2.23;;
146;SDS011;45999;48.808;9.182;2023-02-12T15:46:51;2.13;;;1.93;;
146;SDS011;45999;48.808;9.182;2023-02-12T15:49:20;3.17;;;2.30;;
146;SDS011;45999;48.808;9.182;2023-02-12T15:51:49;2.10;;;1.90;;
146;SDS011;45999;48.808;9.182;2023-02-12T15:54:17;2.37;;;2.17;;
146;SDS011;45999;48.808;9.182;2023-02-12T15:56:45;2.80;;;2.20;;
146;SDS011;45999;48.808;9.182;2023-02-12T15:59:17;3.00;;;2.23;;
146;SDS011;45999;48.808;9.182;2023-02-12T16:02:00;2.87;;;2.37;;
146;SDS011;45999;48.808;9.182;2023-02-12T16:04:28;2.30;;;2.10;;
146;SDS011;45999;48.808;9.182;2023-02-12T16:06:58;2.47;;;2.07;;
146;SDS011;45999;48.808;9.182;2023-02-12T16:09:32;2.50;;;1.90;;
146;SDS011;45999;48.808;9.182;2023-02-12T16:12:01;2.37;;;2.17;;
146;SDS011;45999;48.808;9.182;2023-02-12T16:19:58;2.50;;;2.10;;
146;SDS011;45999;48.808;9.182;2023-02-12T16:22:27;2.33;;;2.13;;
146;SDS011;45999;48.808;9.182;2023-02-12T16:24:55;3.60;;;2.17;;
146;SDS011;45999;48.808;9.182;2023-02-12T16:27:32;2.90;;;2.30;;
146;SDS011;45999;48.808;9.182;2023-02-12T16:30:00;3.13;;;2.20;;
146;SDS011;45999;48.808;9.182;2023-02-12T16:32:34;2.53;;;2.33;;
146;SDS011;45999;48.808;9.182;2023-02-12T16:45:31;4.33;;;2.83;;
146;SDS011;45999;48.808;9.182;2023-02-12T16:50:42;2.93;;;2.63;;
146;SDS011;45999;48.808;9.182;2023-02-12T16:56:01;3.50;;;3.03;;
146;SDS011;45999;48.808;9.182;2023-02-12T16:58:29;4.03;;;3.30;;
146;SDS011;45999;48.808;9.182;2023-02-12T17:00:56;4.60;;;3.93;;
146;SDS011;45999;48.808;9.182;2023-02-12T17:03:24;5.33;;;3.83;;
146;SDS011;45999;48.808;9.182;2023-02-12T17:05:51;4.47;;;3.83;;
146;SDS011;45999;48.808;9.182;2023-02-12T17:08:19;5.10;;;3.93;;
146;SDS011;45999;48.808;9.182;2023-02-12T17:10:47;6.53;;;4.37;;
146;SDS011;45999;48.808;9.182;2023-02-12T17:13:14;5.27;;;4.00;;
146;SDS011;45999;48.808;9.182;2023-02-12T17:15:41;4.90;;;4.23;;
146;SDS011;45999;48.808;9.182;2023-02-12T17:18:12;5.43;;;4.33;;
146;SDS011;45999;48.808;9.182;2023-02-12T17:20:39;6.17;;;4.97;;
146;SDS011;45999;48.808;9.182;2023-02-12T17:23:05;4.97;;;4.40;;
146;SDS011;45999;48.808;9.182;2023-02-12T17:25:32;5.13;;;4.63;;
146;SDS011;45999;48.808;9.182;2023-02-12T17:28:00;6.70;;;4.50;;
146;SDS011;45999;48.808;9.182;2023-02-12T17:30:26;6.83;;;5.50;;
146;SDS011;45999;48.808;9.182;2023-02-12T17:32:54;6.37;;;5.00;;
146;SDS011;45999;48.808;9.182;2023-02-12T17:35:20;6.80;;;5.30;;
146;SDS011;45999;48.808;9.182;2023-02-12T17:37:47;5.87;;;4.77;;
146;SDS011;45999;48.808;9.182;2023-02-12T17:40:13;6.80;;;5.47;;
146;SDS011;45999;48.808;9.182;2023-02-12T17:42:40;5.63;;;4.90;;
146;SDS011;45999;48.808;9.182;2023-02-12T17:45:06;6.70;;;5.73;;
146;SDS011;45999;48.808;9.182;2023-02-12T17:47:33;6.40;;;5.40;;
146;SDS011;45999;48.808;9.182;2023-02-12T17:50:07;7.20;;;5.40;;
146;SDS011;45999;48.808;9.182;2023-02-12T17:52:37;7.03;;;5.23;;
146;SDS011;45999;48.808;9.182;2023-02-12T17:55:03;8.20;;;5.77;;
146;SDS011;45999;48.808;9.182;2023-02-12T17:57:31;6.77;;;6.07;;
146;SDS011;45999;48.808;9.182;2023-02-12T17:59:57;7.53;;;5.83;;
146;SDS011;45999;48.808;9.182;2023-02-12T18:02:24;9.43;;;6.47;;
146;SDS011;45999;48.808;9.182;2023-02-12T18:04:50;7.70;;;6.23;;
146;SDS011;45999;48.808;9.182;2023-02-12T18:07:17;7.13;;;6.03;;
146;SDS011;45999;48.808;9.182;2023-02-12T18:09:43;6.23;;;5.57;;
146;SDS011;45999;48.808;9.182;2023-02-12T18:12:10;7.57;;;5.40;;
146;SDS011;45999;48.808;9.182;2023-02-12T18:14:36;6.80;;;5.30;;
146;SDS011;45999;48.808;9.182;2023-02-12T18:17:03;7.07;;;5.00;;
146;SDS011;45999;48.808;9.182;2023-02-12T18:19:30;6.97;;;5.63;;